sensor_id;sensor_type;location;lat;lon;timestamp;pressure;altitude;pressure_sealevel;temperature;humidity
62038;BME280;47991;42.974;12.082;2023-05-29T00:01:26;97469.31;;;14.32;75.69
62038;BME280;47991;42.974;12.082;2023-05-29T00:03:52;97468.77;;;14.36;75.69
62038;BME280;47991;42.974;12.082;2023-05-29T00:06:19;97466.36;;;14.31;76.11
62038;BME280;47991;42.974;12.082;2023-05-29T00:08:45;97465.51;;;14.23;75.99
62038;BME280;47991;42.974;12.082;2023-05-29T00:11:13;97469.37;;;14.13;77.08
62038;BME280;47991;42.974;12.082;2023-05-29T00:13:39;97463.92;;;14.08;76.94
62038;BME280;47991;42.974;12.082;2023-05-29T00:16:06;97467.27;;;14.09;77.00
62038;BME280;47991;42.974;12.082;2023-05-29T00:18:33;97468.55;;;14.11;76.96
62038;BME280;47991;42.974;12.082;2023-05-29T00:21:01;97462.16;;;14.15;77.01
62038;BME280;47991;42.974;12.082;2023-05-29T00:23:27;97459.77;;;14.13;76.81
62038;BME280;47991;42.974;12.082;2023-05-29T00:25:53;97465.06;;;14.13;76.62
62038;BME280;47991;42.974;12.082;2023-05-29T00:28:20;97464.62;;;14.12;76.42
62038;BME280;47991;42.974;12.082;2023-05-29T00:30:46;97465.70;;;14.08;76.83
62038;BME280;47991;42.974;12.082;2023-05-29T00:33:12;97461.25;;;14.04;76.48
62038;BME280;47991;42.974;12.082;2023-05-29T00:35:39;97463.04;;;14.04;76.41
62038;BME280;47991;42.974;12.082;2023-05-29T00:38:05;97462.88;;;14.03;76.40
62038;BME280;47991;42.974;12.082;2023-05-29T00:40:31;97463.43;;;13.99;76.34
62038;BME280;47991;42.974;12.082;2023-05-29T00:42:57;97461.52;;;13.98;76.34
62038;BME280;47991;42.974;12.082;2023-05-29T00:45:23;97464.74;;;14.01;76.23
62038;BME280;47991;42.974;12.082;2023-05-29T00:47:50;97463.71;;;14.01;76.42
62038;BME280;47991;42.974;12.082;2023-05-29T00:50:16;97465.09;;;13.98;76.71
62038;BME280;47991;42.974;12.082;2023-05-29T00:52:44;97463.33;;;13.98;76.77
62038;BME280;47991;42.974;12.082;2023-05-29T00:55:11;97460.74;;;14.00;77.29
62038;BME280;47991;42.974;12.082;2023-05-29T00:57:37;97458.50;;;13.98;77.08
62038;BME280;47991;42.974;12.082;2023-05-29T01:00:07;97453.50;;;13.98;77.07
62038;BME280;47991;42.974;12.082;2023-05-29T01:02:36;97452.55;;;13.93;77.15
62038;BME280;47991;42.974;12.082;2023-05-29T01:05:04;97454.40;;;13.87;76.77
62038;BME280;47991;42.974;12.082;2023-05-29T01:07:32;97449.95;;;13.79;76.85
62038;BME280;47991;42.974;12.082;2023-05-29T01:09:59;97448.46;;;13.73;77.73
62038;BME280;47991;42.974;12.082;2023-05-29T01:12:56;97450.75;;;13.70;78.05
62038;BME280;47991;42.974;12.082;2023-05-29T01:15:35;97453.09;;;13.65;77.94
62038;BME280;47991;42.974;12.082;2023-05-29T01:20:42;97452.23;;;13.65;78.27
62038;BME280;47991;42.974;12.082;2023-05-29T01:28:38;97457.52;;;13.69;78.21
62038;BME280;47991;42.974;12.082;2023-05-29T01:31:07;97462.56;;;13.64;78.41
62038;BME280;47991;42.974;12.082;2023-05-29T01:33:33;97458.83;;;13.60;78.12
62038;BME280;47991;42.974;12.082;2023-05-29T01:36:00;97464.29;;;13.53;78.15
62038;BME280;47991;42.974;12.082;2023-05-29T01:38:26;97463.64;;;13.48;78.06
62038;BME280;47991;42.974;12.082;2023-05-29T01:40:52;97466.25;;;13.45;78.13
62038;BME280;47991;42.974;12.082;2023-05-29T01:43:19;97467.77;;;13.47;78.31
62038;BME280;47991;42.974;12.082;2023-05-29T01:45:45;97461.42;;;13.46;78.42
62038;BME280;47991;42.974;12.082;2023-05-29T01:48:11;97461.18;;;13.47;78.74
62038;BME280;47991;42.974;12.082;2023-05-29T01:50:38;97456.84;;;13.45;78.72
62038;BME280;47991;42.974;12.082;2023-05-29T01:53:04;97458.10;;;13.44;79.16
62038;BME280;47991;42.974;12.082;2023-05-29T01:55:31;97460.07;;;13.44;79.05
62038;BME280;47991;42.974;12.082;2023-05-29T01:57:57;97457.20;;;13.45;79.07
62038;BME280;47991;42.974;12.082;2023-05-29T02:00:23;97455.67;;;13.43;78.88
62038;BME280;47991;42.974;12.082;2023-05-29T02:02:49;97456.39;;;13.43;78.82
62038;BME280;47991;42.974;12.082;2023-05-29T02:05:16;97457.83;;;13.43;79.01
62038;BME280;47991;42.974;12.082;2023-05-29T02:07:43;97459.95;;;13.39;79.37
62038;BME280;47991;42.974;12.082;2023-05-29T02:10:09;97461.12;;;13.33;79.87
62038;BME280;47991;42.974;12.082;2023-05-29T02:12:36;97461.55;;;13.31;79.60
62038;BME280;47991;42.974;12.082;2023-05-29T02:15:03;97463.19;;;13.30;80.03
62038;BME280;47991;42.974;12.082;2023-05-29T02:17:29;97458.77;;;13.29;79.73
62038;BME280;47991;42.974;12.082;2023-05-29T02:19:56;97461.40;;;13.25;79.52
62038;BME280;47991;42.974;12.082;2023-05-29T02:22:23;97464.77;;;13.30;79.40
62038;BME280;47991;42.974;12.082;2023-05-29T02:24:49;97464.23;;;13.30;79.47
62038;BME280;47991;42.974;12.082;2023-05-29T02:27:15;97463.27;;;13.32;79.20
62038;BME280;47991;42.974;12.082;2023-05-29T02:29:41;97463.48;;;13.31;79.51
62038;BME280;47991;42.974;12.082;2023-05-29T02:32:07;97462.80;;;13.30;79.61
62038;BME280;47991;42.974;12.082;2023-05-29T02:34:34;97465.06;;;13.32;79.74
62038;BME280;47991;42.974;12.082;2023-05-29T02:37:00;97461.26;;;13.29;79.91
62038;BME280;47991;42.974;12.082;2023-05-29T02:39:26;97460.92;;;13.24;79.79
62038;BME280;47991;42.974;12.082;2023-05-29T02:41:53;97460.86;;;13.26;80.02
62038;BME280;47991;42.974;12.082;2023-05-29T02:44:19;97464.21;;;13.30;80.44
62038;BME280;47991;42.974;12.082;2023-05-29T02:46:46;97461.81;;;13.33;80.13
62038;BME280;47991;42.974;12.082;2023-05-29T02:49:12;97460.49;;;13.35;80.02
62038;BME280;47991;42.974;12.082;2023-05-29T02:51:38;97458.50;;;13.32;79.89
62038;BME280;47991;42.974;12.082;2023-05-29T02:54:04;97459.92;;;13.27;79.85
62038;BME280;47991;42.974;12.082;2023-05-29T02:56:31;97457.52;;;13.25;79.72
62038;BME280;47991;42.974;12.082;2023-05-29T02:58:57;97459.73;;;13.15;80.05
62038;BME280;47991;42.974;12.082;2023-05-29T03:01:23;97460.61;;;13.11;80.00
62038;BME280;47991;42.974;12.082;2023-05-29T03:03:49;97460.19;;;13.13;80.18
62038;BME280;47991;42.974;12.082;2023-05-29T03:06:16;97457.55;;;13.12;79.96
62038;BME280;47991;42.974;12.082;2023-05-29T03:08:44;97457.98;;;13.06;79.64
62038;BME280;47991;42.974;12.082;2023-05-29T03:11:11;97456.34;;;12.99;79.85
62038;BME280;47991;42.974;12.082;2023-05-29T03:13:38;97464.39;;;12.94;79.96
62038;BME280;47991;42.974;12.082;2023-05-29T03:16:04;97458.72;;;12.89;80.10
62038;BME280;47991;42.974;12.082;2023-05-29T03:18:30;97459.77;;;12.85;80.13
62038;BME280;47991;42.974;12.082;2023-05-29T03:20:57;97457.77;;;12.86;80.47
62038;BME280;47991;42.974;12.082;2023-05-29T03:23:25;97456.60;;;12.89;80.36
62038;BME280;47991;42.974;12.082;2023-05-29T03:25:51;97457.79;;;12.90;80.47
62038;BME280;47991;42.974;12.082;2023-05-29T03:28:17;97460.23;;;12.91;80.21
62038;BME280;47991;42.974;12.082;2023-05-29T03:30:44;97461.34;;;12.90;80.35
62038;BME280;47991;42.974;12.082;2023-05-29T03:33:10;97461.25;;;12.87;80.37
62038;BME280;47991;42.974;12.082;2023-05-29T03:35:36;97464.40;;;12.85;80.27
62038;BME280;47991;42.974;12.082;2023-05-29T03:38:03;97464.68;;;12.82;80.03
62038;BME280;47991;42.974;12.082;2023-05-29T03:40:29;97464.00;;;12.82;80.00
62038;BME280;47991;42.974;12.082;2023-05-29T03:42:55;97463.02;;;12.75;80.09
62038;BME280;47991;42.974;12.082;2023-05-29T03:45:22;97461.42;;;12.71;79.92
62038;BME280;47991;42.974;12.082;2023-05-29T03:47:48;97461.39;;;12.68;79.78
62038;BME280;47991;42.974;12.082;2023-05-29T03:50:14;97463.55;;;12.67;79.91
62038;BME280;47991;42.974;12.082;2023-05-29T03:52:42;97463.37;;;12.71;79.72
62038;BME280;47991;42.974;12.082;2023-05-29T03:55:09;97461.56;;;12.72;79.73
62038;BME280;47991;42.974;12.082;2023-05-29T03:57:40;97459.60;;;12.68;79.93
62038;BME280;47991;42.974;12.082;2023-05-29T04:00:10;97458.90;;;12.68;80.21
62038;BME280;47991;42.974;12.082;2023-05-29T04:02:38;97460.86;;;12.72;80.45
62038;BME280;47991;42.974;12.082;2023-05-29T04:05:07;97460.52;;;12.71;80.56
62038;BME280;47991;42.974;12.082;2023-05-29T04:07:37;97460.70;;;12.71;80.62
62038;BME280;47991;42.974;12.082;2023-05-29T04:10:05;97458.67;;;12.78;80.61
62038;BME280;47991;42.974;12.082;2023-05-29T04:12:32;97454.55;;;12.83;81.00
62038;BME280;47991;42.974;12.082;2023-05-29T04:14:59;97456.63;;;12.93;80.52
62038;BME280;47991;42.974;12.082;2023-05-29T04:17:25;97453.58;;;12.97;80.13
62038;BME280;47991;42.974;12.082;2023-05-29T04:19:52;97463.36;;;13.01;80.10
62038;BME280;47991;42.974;12.082;2023-05-29T04:22:18;97461.61;;;13.08;79.61
62038;BME280;47991;42.974;12.082;2023-05-29T04:24:45;97461.31;;;13.32;79.41
62038;BME280;47991;42.974;12.082;2023-05-29T04:27:12;97464.09;;;13.77;78.25
62038;BME280;47991;42.974;12.082;2023-05-29T04:29:40;97460.33;;;14.08;77.45
62038;BME280;47991;42.974;12.082;2023-05-29T04:32:09;97462.25;;;14.20;76.93
62038;BME280;47991;42.974;12.082;2023-05-29T04:34:38;97461.84;;;14.51;76.51
62038;BME280;47991;42.974;12.082;2023-05-29T04:37:09;97463.14;;;15.00;75.43
62038;BME280;47991;42.974;12.082;2023-05-29T04:39:36;97466.70;;;15.32;74.99
62038;BME280;47991;42.974;12.082;2023-05-29T04:42:02;97465.95;;;15.29;74.78
62038;BME280;47991;42.974;12.082;2023-05-29T04:44:30;97469.14;;;15.29;74.71
62038;BME280;47991;42.974;12.082;2023-05-29T04:46:56;97469.58;;;15.27;74.81
62038;BME280;47991;42.974;12.082;2023-05-29T04:49:23;97474.20;;;15.17;74.86
62038;BME280;47991;42.974;12.082;2023-05-29T04:51:49;97475.48;;;15.03;75.11
62038;BME280;47991;42.974;12.082;2023-05-29T04:54:18;97477.81;;;14.88;75.61
62038;BME280;47991;42.974;12.082;2023-05-29T04:56:46;97476.45;;;14.80;75.74
62038;BME280;47991;42.974;12.082;2023-05-29T04:59:12;97476.86;;;14.79;75.88
62038;BME280;47991;42.974;12.082;2023-05-29T05:01:38;97474.79;;;14.85;75.93
62038;BME280;47991;42.974;12.082;2023-05-29T05:04:05;97474.92;;;15.38;75.35
62038;BME280;47991;42.974;12.082;2023-05-29T05:06:31;97469.54;;;16.12;74.07
62038;BME280;47991;42.974;12.082;2023-05-29T05:08:57;97469.15;;;16.88;71.97
62038;BME280;47991;42.974;12.082;2023-05-29T05:11:24;97469.68;;;17.60;70.55
62038;BME280;47991;42.974;12.082;2023-05-29T05:13:50;97466.33;;;18.15;68.51
62038;BME280;47991;42.974;12.082;2023-05-29T05:16:17;97460.08;;;18.56;67.70
62038;BME280;47991;42.974;12.082;2023-05-29T05:18:44;97457.20;;;19.13;65.88
62038;BME280;47991;42.974;12.082;2023-05-29T05:21:10;97453.13;;;19.78;63.84
62038;BME280;47991;42.974;12.082;2023-05-29T05:23:37;97452.00;;;20.39;63.01
62038;BME280;47991;42.974;12.082;2023-05-29T05:26:03;97449.96;;;20.86;61.71
62038;BME280;47991;42.974;12.082;2023-05-29T05:28:29;97454.26;;;21.19;60.54
62038;BME280;47991;42.974;12.082;2023-05-29T05:30:55;97454.91;;;21.32;60.02
62038;BME280;47991;42.974;12.082;2023-05-29T05:33:22;97452.40;;;21.25;60.71
62038;BME280;47991;42.974;12.082;2023-05-29T05:35:48;97453.51;;;21.24;60.11
62038;BME280;47991;42.974;12.082;2023-05-29T05:38:14;97452.45;;;21.22;60.20
62038;BME280;47991;42.974;12.082;2023-05-29T05:40:40;97449.52;;;21.09;60.45
62038;BME280;47991;42.974;12.082;2023-05-29T05:43:07;97449.44;;;20.89;61.59
62038;BME280;47991;42.974;12.082;2023-05-29T05:45:33;97453.62;;;20.56;62.45
62038;BME280;47991;42.974;12.082;2023-05-29T05:48:00;97454.94;;;20.35;63.44
62038;BME280;47991;42.974;12.082;2023-05-29T05:50:27;97452.98;;;20.28;64.01
62038;BME280;47991;42.974;12.082;2023-05-29T05:52:53;97452.60;;;20.13;64.85
62038;BME280;47991;42.974;12.082;2023-05-29T05:55:19;97456.81;;;19.99;65.39
62038;BME280;47991;42.974;12.082;2023-05-29T05:57:45;97457.88;;;19.97;66.02
62038;BME280;47991;42.974;12.082;2023-05-29T06:00:12;97451.84;;;19.98;65.83
62038;BME280;47991;42.974;12.082;2023-05-29T06:02:39;97456.85;;;20.04;65.15
62038;BME280;47991;42.974;12.082;2023-05-29T06:05:10;97454.86;;;20.04;65.81
62038;BME280;47991;42.974;12.082;2023-05-29T06:07:37;97452.51;;;20.04;66.22
62038;BME280;47991;42.974;12.082;2023-05-29T06:10:04;97449.34;;;20.16;66.22
62038;BME280;47991;42.974;12.082;2023-05-29T06:12:31;97448.95;;;20.31;65.52
62038;BME280;47991;42.974;12.082;2023-05-29T06:14:57;97451.00;;;20.47;64.62
62038;BME280;47991;42.974;12.082;2023-05-29T06:17:23;97452.35;;;20.63;64.12
62038;BME280;47991;42.974;12.082;2023-05-29T06:19:49;97452.42;;;20.74;63.99
62038;BME280;47991;42.974;12.082;2023-05-29T06:22:18;97448.98;;;20.82;63.81
62038;BME280;47991;42.974;12.082;2023-05-29T06:24:44;97450.14;;;20.86;63.34
62038;BME280;47991;42.974;12.082;2023-05-29T06:27:10;97448.89;;;20.64;60.56
62038;BME280;47991;42.974;12.082;2023-05-29T06:29:37;97444.66;;;20.45;58.10
62038;BME280;47991;42.974;12.082;2023-05-29T06:32:03;97443.63;;;20.35;58.36
62038;BME280;47991;42.974;12.082;2023-05-29T06:34:29;97443.92;;;20.48;60.13
62038;BME280;47991;42.974;12.082;2023-05-29T06:36:55;97441.67;;;20.79;60.69
62038;BME280;47991;42.974;12.082;2023-05-29T06:39:21;97439.04;;;20.93;56.93
62038;BME280;47991;42.974;12.082;2023-05-29T06:41:48;97439.39;;;20.95;58.46
62038;BME280;47991;42.974;12.082;2023-05-29T06:44:14;97443.80;;;21.17;58.39
62038;BME280;47991;42.974;12.082;2023-05-29T06:46:40;97443.49;;;21.26;58.34
62038;BME280;47991;42.974;12.082;2023-05-29T06:49:06;97443.38;;;21.11;58.25
62038;BME280;47991;42.974;12.082;2023-05-29T06:51:33;97446.09;;;21.16;58.43
62038;BME280;47991;42.974;12.082;2023-05-29T06:53:59;97444.67;;;21.39;56.43
62038;BME280;47991;42.974;12.082;2023-05-29T06:56:26;97444.17;;;21.60;56.09
62038;BME280;47991;42.974;12.082;2023-05-29T06:58:53;97445.56;;;21.74;56.65
62038;BME280;47991;42.974;12.082;2023-05-29T07:01:20;97443.94;;;21.92;56.26
62038;BME280;47991;42.974;12.082;2023-05-29T07:03:51;97443.45;;;22.12;55.53
62038;BME280;47991;42.974;12.082;2023-05-29T07:06:17;97440.31;;;22.33;54.80
62038;BME280;47991;42.974;12.082;2023-05-29T07:08:44;97441.98;;;22.39;53.49
62038;BME280;47991;42.974;12.082;2023-05-29T07:11:10;97436.40;;;22.59;54.85
62038;BME280;47991;42.974;12.082;2023-05-29T07:13:36;97436.52;;;22.54;52.25
62038;BME280;47991;42.974;12.082;2023-05-29T07:16:03;97437.29;;;22.47;52.97
62038;BME280;47991;42.974;12.082;2023-05-29T07:18:29;97438.26;;;22.57;54.02
62038;BME280;47991;42.974;12.082;2023-05-29T07:20:56;97437.92;;;22.63;53.91
62038;BME280;47991;42.974;12.082;2023-05-29T07:23:24;97433.48;;;22.51;53.52
62038;BME280;47991;42.974;12.082;2023-05-29T07:25:50;97434.31;;;22.14;54.76
62038;BME280;47991;42.974;12.082;2023-05-29T07:28:16;97431.96;;;22.20;55.92
62038;BME280;47991;42.974;12.082;2023-05-29T07:30:42;97429.05;;;22.21;55.15
62038;BME280;47991;42.974;12.082;2023-05-29T07:33:08;97425.55;;;22.22;55.09
62038;BME280;47991;42.974;12.082;2023-05-29T07:35:35;97426.16;;;22.28;54.37
62038;BME280;47991;42.974;12.082;2023-05-29T07:38:02;97422.12;;;22.53;55.40
62038;BME280;47991;42.974;12.082;2023-05-29T07:40:28;97423.25;;;22.61;55.08
62038;BME280;47991;42.974;12.082;2023-05-29T07:42:55;97421.36;;;22.84;55.14
62038;BME280;47991;42.974;12.082;2023-05-29T07:45:21;97418.41;;;22.98;54.79
62038;BME280;47991;42.974;12.082;2023-05-29T07:47:47;97420.48;;;22.95;54.45
62038;BME280;47991;42.974;12.082;2023-05-29T07:50:14;97418.20;;;23.05;53.76
62038;BME280;47991;42.974;12.082;2023-05-29T07:52:42;97417.31;;;23.11;52.65
62038;BME280;47991;42.974;12.082;2023-05-29T07:55:09;97416.84;;;23.32;53.29
62038;BME280;47991;42.974;12.082;2023-05-29T07:57:36;97417.44;;;23.44;54.09
62038;BME280;47991;42.974;12.082;2023-05-29T08:00:03;97415.27;;;23.41;53.60
62038;BME280;47991;42.974;12.082;2023-05-29T08:02:35;97417.85;;;23.45;54.01
62038;BME280;47991;42.974;12.082;2023-05-29T08:05:04;97416.14;;;23.33;52.95
62038;BME280;47991;42.974;12.082;2023-05-29T08:07:31;97417.77;;;23.48;54.14
62038;BME280;47991;42.974;12.082;2023-05-29T08:09:58;97408.13;;;23.78;52.94
62038;BME280;47991;42.974;12.082;2023-05-29T08:12:24;97411.52;;;23.99;52.61
62038;BME280;47991;42.974;12.082;2023-05-29T08:14:51;97410.19;;;24.25;52.31
62038;BME280;47991;42.974;12.082;2023-05-29T08:17:17;97405.17;;;24.48;51.13
62038;BME280;47991;42.974;12.082;2023-05-29T08:19:43;97409.29;;;24.32;51.89
62038;BME280;47991;42.974;12.082;2023-05-29T08:22:12;97410.98;;;23.93;51.80
62038;BME280;47991;42.974;12.082;2023-05-29T08:24:41;97412.30;;;23.95;50.61
62038;BME280;47991;42.974;12.082;2023-05-29T08:27:07;97413.48;;;24.04;50.85
62038;BME280;47991;42.974;12.082;2023-05-29T08:29:33;97414.71;;;24.04;49.85
62038;BME280;47991;42.974;12.082;2023-05-29T08:32:00;97418.45;;;24.29;50.91
62038;BME280;47991;42.974;12.082;2023-05-29T08:34:26;97412.84;;;24.59;49.56
62038;BME280;47991;42.974;12.082;2023-05-29T08:36:52;97412.63;;;24.56;49.10
62038;BME280;47991;42.974;12.082;2023-05-29T08:39:20;97414.60;;;24.32;48.95
62038;BME280;47991;42.974;12.082;2023-05-29T08:41:59;97417.84;;;24.38;49.56
62038;BME280;47991;42.974;12.082;2023-05-29T08:44:27;97421.09;;;24.36;49.89
62038;BME280;47991;42.974;12.082;2023-05-29T08:46:56;97424.55;;;24.33;50.87
62038;BME280;47991;42.974;12.082;2023-05-29T08:49:22;97427.55;;;24.42;49.58
62038;BME280;47991;42.974;12.082;2023-05-29T08:51:58;97431.59;;;24.38;48.32
62038;BME280;47991;42.974;12.082;2023-05-29T08:54:31;97430.23;;;24.06;50.02
62038;BME280;47991;42.974;12.082;2023-05-29T08:57:00;97431.53;;;23.91;48.93
62038;BME280;47991;42.974;12.082;2023-05-29T08:59:27;97431.48;;;23.84;49.29
62038;BME280;47991;42.974;12.082;2023-05-29T09:01:56;97429.96;;;24.05;50.27
62038;BME280;47991;42.974;12.082;2023-05-29T09:04:23;97424.86;;;24.55;49.18
62038;BME280;47991;42.974;12.082;2023-05-29T09:06:50;97423.89;;;24.93;48.22
62038;BME280;47991;42.974;12.082;2023-05-29T09:09:18;97424.94;;;24.89;47.77
62038;BME280;47991;42.974;12.082;2023-05-29T09:11:46;97428.30;;;24.86;49.05
62038;BME280;47991;42.974;12.082;2023-05-29T09:14:41;97427.06;;;24.88;47.71
62038;BME280;47991;42.974;12.082;2023-05-29T09:17:11;97425.52;;;24.95;48.45
62038;BME280;47991;42.974;12.082;2023-05-29T09:19:39;97428.84;;;25.00;47.53
62038;BME280;47991;42.974;12.082;2023-05-29T09:22:08;97427.46;;;25.15;47.41
62038;BME280;47991;42.974;12.082;2023-05-29T09:24:37;97429.45;;;25.27;47.88
62038;BME280;47991;42.974;12.082;2023-05-29T09:27:05;97429.55;;;25.64;47.67
62038;BME280;47991;42.974;12.082;2023-05-29T09:29:38;97427.40;;;25.98;46.27
62038;BME280;47991;42.974;12.082;2023-05-29T09:32:16;97425.63;;;26.28;45.58
62038;BME280;47991;42.974;12.082;2023-05-29T09:34:43;97422.27;;;26.51;45.25
62038;BME280;47991;42.974;12.082;2023-05-29T09:37:11;97423.92;;;26.65;44.51
62038;BME280;47991;42.974;12.082;2023-05-29T09:39:45;97421.09;;;26.61;43.23
62038;BME280;47991;42.974;12.082;2023-05-29T09:42:13;97417.69;;;26.68;44.45
62038;BME280;47991;42.974;12.082;2023-05-29T09:44:40;97419.32;;;26.59;44.43
62038;BME280;47991;42.974;12.082;2023-05-29T09:47:07;97420.02;;;26.63;44.33
62038;BME280;47991;42.974;12.082;2023-05-29T09:49:34;97415.84;;;26.90;44.01
62038;BME280;47991;42.974;12.082;2023-05-29T09:52:02;97418.08;;;27.11;44.33
62038;BME280;47991;42.974;12.082;2023-05-29T09:54:28;97418.23;;;27.25;43.19
62038;BME280;47991;42.974;12.082;2023-05-29T09:56:55;97419.67;;;27.15;41.13
62038;BME280;47991;42.974;12.082;2023-05-29T09:59:23;97421.35;;;27.27;41.39
62038;BME280;47991;42.974;12.082;2023-05-29T10:02:03;97419.02;;;27.07;42.86
62038;BME280;47991;42.974;12.082;2023-05-29T10:04:31;97423.64;;;26.92;43.55
62038;BME280;47991;42.974;12.082;2023-05-29T10:07:29;97423.77;;;27.12;43.49
62038;BME280;47991;42.974;12.082;2023-05-29T10:10:03;97413.72;;;27.18;40.61
62038;BME280;47991;42.974;12.082;2023-05-29T10:12:32;97414.43;;;27.35;40.54
62038;BME280;47991;42.974;12.082;2023-05-29T10:15:01;97410.83;;;27.49;41.01
62038;BME280;47991;42.974;12.082;2023-05-29T10:17:33;97409.55;;;27.43;41.92
62038;BME280;47991;42.974;12.082;2023-05-29T10:20:02;97407.45;;;27.58;41.47
62038;BME280;47991;42.974;12.082;2023-05-29T10:22:32;97408.19;;;27.83;42.29
62038;BME280;47991;42.974;12.082;2023-05-29T10:24:59;97403.55;;;27.70;41.14
62038;BME280;47991;42.974;12.082;2023-05-29T10:27:26;97404.80;;;27.73;42.47
62038;BME280;47991;42.974;12.082;2023-05-29T10:30:09;97405.96;;;27.95;42.13
62038;BME280;47991;42.974;12.082;2023-05-29T10:35:22;97402.97;;;27.94;40.88
62038;BME280;47991;42.974;12.082;2023-05-29T10:38:12;97407.17;;;27.66;40.69
62038;BME280;47991;42.974;12.082;2023-05-29T10:40:39;97415.77;;;27.55;41.67
62038;BME280;47991;42.974;12.082;2023-05-29T10:43:06;97416.05;;;27.89;40.46
62038;BME280;47991;42.974;12.082;2023-05-29T10:45:47;97409.72;;;27.77;38.21
62038;BME280;47991;42.974;12.082;2023-05-29T10:53:09;97413.24;;;28.28;38.97
62038;BME280;47991;42.974;12.082;2023-05-29T10:55:37;97413.97;;;28.21;39.82
62038;BME280;47991;42.974;12.082;2023-05-29T10:58:07;97415.80;;;28.16;39.07
62038;BME280;47991;42.974;12.082;2023-05-29T11:00:39;97415.36;;;28.06;39.75
62038;BME280;47991;42.974;12.082;2023-05-29T11:03:09;97410.99;;;27.73;41.15
62038;BME280;47991;42.974;12.082;2023-05-29T11:08:47;97408.67;;;27.73;42.87
62038;BME280;47991;42.974;12.082;2023-05-29T11:11:33;97407.55;;;27.80;41.54
62038;BME280;47991;42.974;12.082;2023-05-29T11:14:03;97403.89;;;27.65;41.03
62038;BME280;47991;42.974;12.082;2023-05-29T11:18:57;97395.08;;;28.06;40.76
62038;BME280;47991;42.974;12.082;2023-05-29T11:23:54;97391.83;;;28.29;40.12
62038;BME280;47991;42.974;12.082;2023-05-29T11:26:21;97389.90;;;28.47;38.29
62038;BME280;47991;42.974;12.082;2023-05-29T11:28:48;97385.45;;;28.43;38.28
62038;BME280;47991;42.974;12.082;2023-05-29T11:31:16;97388.92;;;28.41;36.23
62038;BME280;47991;42.974;12.082;2023-05-29T11:33:49;97382.25;;;28.70;38.17
62038;BME280;47991;42.974;12.082;2023-05-29T11:36:21;97382.98;;;28.98;38.04
62038;BME280;47991;42.974;12.082;2023-05-29T11:38:47;97385.44;;;29.22;38.11
62038;BME280;47991;42.974;12.082;2023-05-29T11:41:16;97379.66;;;29.03;38.28
62038;BME280;47991;42.974;12.082;2023-05-29T11:43:42;97383.59;;;28.40;39.52
62038;BME280;47991;42.974;12.082;2023-05-29T11:46:19;97394.83;;;27.71;41.88
62038;BME280;47991;42.974;12.082;2023-05-29T11:48:47;97398.26;;;26.84;45.35
62038;BME280;47991;42.974;12.082;2023-05-29T11:51:14;97404.73;;;26.17;46.37
62038;BME280;47991;42.974;12.082;2023-05-29T11:53:41;97412.30;;;25.57;48.18
62038;BME280;47991;42.974;12.082;2023-05-29T11:56:09;97413.30;;;25.04;50.47
62038;BME280;47991;42.974;12.082;2023-05-29T11:58:38;97407.64;;;24.79;49.73
62038;BME280;47991;42.974;12.082;2023-05-29T12:01:08;97404.70;;;24.60;50.22
62038;BME280;47991;42.974;12.082;2023-05-29T12:03:40;97396.73;;;24.39;51.83
62038;BME280;47991;42.974;12.082;2023-05-29T12:06:10;97395.33;;;24.23;52.05
62038;BME280;47991;42.974;12.082;2023-05-29T12:08:38;97393.39;;;24.08;52.80
62038;BME280;47991;42.974;12.082;2023-05-29T12:11:05;97393.23;;;23.94;56.40
62038;BME280;47991;42.974;12.082;2023-05-29T12:13:32;97395.74;;;23.52;62.11
62038;BME280;47991;42.974;12.082;2023-05-29T12:16:04;97398.05;;;23.28;62.24
62038;BME280;47991;42.974;12.082;2023-05-29T12:18:31;97396.38;;;23.35;60.77
62038;BME280;47991;42.974;12.082;2023-05-29T12:21:01;97393.03;;;23.48;62.27
62038;BME280;47991;42.974;12.082;2023-05-29T12:23:28;97382.59;;;23.89;60.01
62038;BME280;47991;42.974;12.082;2023-05-29T12:25:58;97374.80;;;24.44;56.53
62038;BME280;47991;42.974;12.082;2023-05-29T12:28:25;97374.95;;;24.90;54.17
62038;BME280;47991;42.974;12.082;2023-05-29T12:30:58;97371.89;;;25.09;53.25
62038;BME280;47991;42.974;12.082;2023-05-29T12:33:27;97365.96;;;25.11;52.50
62038;BME280;47991;42.974;12.082;2023-05-29T12:35:54;97363.64;;;25.40;55.31
62038;BME280;47991;42.974;12.082;2023-05-29T12:38:22;97361.70;;;25.51;55.83
62038;BME280;47991;42.974;12.082;2023-05-29T12:40:48;97357.60;;;25.85;54.08
62038;BME280;47991;42.974;12.082;2023-05-29T12:43:16;97351.70;;;26.20;51.25
62038;BME280;47991;42.974;12.082;2023-05-29T12:45:42;97350.70;;;26.28;51.44
62038;BME280;47991;42.974;12.082;2023-05-29T12:48:08;97345.92;;;26.62;50.08
62038;BME280;47991;42.974;12.082;2023-05-29T12:50:40;97344.53;;;26.99;49.59
62038;BME280;47991;42.974;12.082;2023-05-29T12:53:12;97339.85;;;27.31;48.07
62038;BME280;47991;42.974;12.082;2023-05-29T12:55:41;97334.55;;;27.51;44.73
62038;BME280;47991;42.974;12.082;2023-05-29T12:58:09;97329.95;;;27.60;45.07
62038;BME280;47991;42.974;12.082;2023-05-29T13:00:38;97332.12;;;27.44;46.25
62038;BME280;47991;42.974;12.082;2023-05-29T13:03:05;97327.19;;;27.22;45.75
62038;BME280;47991;42.974;12.082;2023-05-29T13:05:32;97327.73;;;27.23;46.56
62038;BME280;47991;42.974;12.082;2023-05-29T13:07:59;97325.34;;;27.48;46.78
62038;BME280;47991;42.974;12.082;2023-05-29T13:10:26;97324.34;;;27.51;46.42
62038;BME280;47991;42.974;12.082;2023-05-29T13:12:54;97327.55;;;27.55;45.66
62038;BME280;47991;42.974;12.082;2023-05-29T13:15:22;97327.65;;;27.59;43.32
62038;BME280;47991;42.974;12.082;2023-05-29T13:17:49;97323.32;;;27.69;44.76